sensor_id;sensor_type;location;lat;lon;timestamp;pressure;altitude;pressure_sealevel;temperature;humidity
10115;BME280;5097;43.260;27.812;2023-05-23T00:02:09;99689.97;;;16.24;73.37
10115;BME280;5097;43.260;27.812;2023-05-23T00:04:54;99681.50;;;15.98;73.85
10115;BME280;5097;43.260;27.812;2023-05-23T00:07:40;99668.41;;;15.95;73.64
10115;BME280;5097;43.260;27.812;2023-05-23T00:10:25;99696.25;;;16.02;73.90
10115;BME280;5097;43.260;27.812;2023-05-23T00:13:10;99696.06;;;15.83;75.03
10115;BME280;5097;43.260;27.812;2023-05-23T00:15:56;99710.81;;;15.98;74.25
10115;BME280;5097;43.260;27.812;2023-05-23T00:18:40;99708.31;;;15.85;74.89
10115;BME280;5097;43.260;27.812;2023-05-23T00:21:24;99701.88;;;16.20;74.04
10115;BME280;5097;43.260;27.812;2023-05-23T00:24:09;99695.31;;;15.92;74.60
10115;BME280;5097;43.260;27.812;2023-05-23T00:26:54;99663.19;;;15.61;74.98
10115;BME280;5097;43.260;27.812;2023-05-23T00:29:40;99663.41;;;15.81;74.56
10115;BME280;5097;43.260;27.812;2023-05-23T00:32:24;99696.00;;;16.05;74.27
10115;BME280;5097;43.260;27.812;2023-05-23T00:35:08;99701.06;;;16.08;74.44
10115;BME280;5097;43.260;27.812;2023-05-23T00:37:52;99695.78;;;15.97;74.65
10115;BME280;5097;43.260;27.812;2023-05-23T00:40:37;99691.47;;;15.85;75.29
10115;BME280;5097;43.260;27.812;2023-05-23T00:43:22;99683.44;;;15.96;74.78
10115;BME280;5097;43.260;27.812;2023-05-23T00:46:07;99691.06;;;16.01;74.81
10115;BME280;5097;43.260;27.812;2023-05-23T00:48:53;99687.44;;;15.79;75.34
10115;BME280;5097;43.260;27.812;2023-05-23T00:51:37;99674.63;;;15.96;75.05
10115;BME280;5097;43.260;27.812;2023-05-23T00:54:25;99681.50;;;15.98;74.63
10115;BME280;5097;43.260;27.812;2023-05-23T00:57:12;99689.28;;;16.22;73.79
10115;BME280;5097;43.260;27.812;2023-05-23T00:59:57;99693.13;;;15.97;74.94
10115;BME280;5097;43.260;27.812;2023-05-23T01:02:44;99682.88;;;16.14;74.63
10115;BME280;5097;43.260;27.812;2023-05-23T01:05:29;99680.56;;;15.88;75.56
10115;BME280;5097;43.260;27.812;2023-05-23T01:08:13;99684.22;;;15.75;76.55
10115;BME280;5097;43.260;27.812;2023-05-23T01:11:00;99648.66;;;15.65;76.00
10115;BME280;5097;43.260;27.812;2023-05-23T01:13:54;99677.50;;;15.92;75.79
10115;BME280;5097;43.260;27.812;2023-05-23T01:16:46;99675.91;;;16.01;75.67
10115;BME280;5097;43.260;27.812;2023-05-23T01:19:47;99681.38;;;16.00;75.39
10115;BME280;5097;43.260;27.812;2023-05-23T01:22:53;99670.38;;;15.93;75.93
10115;BME280;5097;43.260;27.812;2023-05-23T01:26:02;99666.63;;;15.96;75.82
10115;BME280;5097;43.260;27.812;2023-05-23T01:28:51;99682.50;;;15.86;76.29
10115;BME280;5097;43.260;27.812;2023-05-23T01:31:42;99673.56;;;15.75;77.16
10115;BME280;5097;43.260;27.812;2023-05-23T01:34:28;99675.63;;;15.72;77.46
10115;BME280;5097;43.260;27.812;2023-05-23T01:37:13;99672.09;;;15.83;76.64
10115;BME280;5097;43.260;27.812;2023-05-23T01:40:00;99667.00;;;15.80;77.18
10115;BME280;5097;43.260;27.812;2023-05-23T01:42:46;99641.47;;;15.77;76.72
10115;BME280;5097;43.260;27.812;2023-05-23T01:45:32;99635.69;;;15.72;76.84
10115;BME280;5097;43.260;27.812;2023-05-23T01:48:17;99672.84;;;15.73;77.31
10115;BME280;5097;43.260;27.812;2023-05-23T01:51:02;99664.31;;;15.91;76.92
10115;BME280;5097;43.260;27.812;2023-05-23T01:53:46;99645.25;;;15.74;77.15
10115;BME280;5097;43.260;27.812;2023-05-23T01:56:30;99667.19;;;15.99;76.43
10115;BME280;5097;43.260;27.812;2023-05-23T01:59:15;99666.28;;;15.89;76.63
10115;BME280;5097;43.260;27.812;2023-05-23T02:02:01;99628.25;;;15.87;75.39
10115;BME280;5097;43.260;27.812;2023-05-23T02:04:45;99676.94;;;15.89;76.54
10115;BME280;5097;43.260;27.812;2023-05-23T02:07:28;99671.09;;;15.95;75.88
10115;BME280;5097;43.260;27.812;2023-05-23T02:10:12;99663.53;;;16.12;74.63
10115;BME280;5097;43.260;27.812;2023-05-23T02:12:56;99664.66;;;15.98;74.63
10115;BME280;5097;43.260;27.812;2023-05-23T02:15:43;99671.91;;;16.28;73.30
10115;BME280;5097;43.260;27.812;2023-05-23T02:18:29;99664.38;;;16.33;73.68
10115;BME280;5097;43.260;27.812;2023-05-23T02:21:12;99673.19;;;16.13;74.28
10115;BME280;5097;43.260;27.812;2023-05-23T02:23:56;99669.81;;;16.11;74.67
10115;BME280;5097;43.260;27.812;2023-05-23T02:26:40;99680.97;;;16.04;75.40
10115;BME280;5097;43.260;27.812;2023-05-23T02:29:24;99667.91;;;15.69;76.76
10115;BME280;5097;43.260;27.812;2023-05-23T02:32:09;99649.81;;;15.72;76.69
10115;BME280;5097;43.260;27.812;2023-05-23T02:34:54;99666.03;;;15.92;76.38
10115;BME280;5097;43.260;27.812;2023-05-23T02:37:39;99674.97;;;15.91;76.75
10115;BME280;5097;43.260;27.812;2023-05-23T02:40:23;99678.53;;;15.80;77.33
10115;BME280;5097;43.260;27.812;2023-05-23T02:43:07;99679.41;;;16.02;76.61
10115;BME280;5097;43.260;27.812;2023-05-23T02:45:51;99686.31;;;16.04;76.34
10115;BME280;5097;43.260;27.812;2023-05-23T02:48:35;99684.72;;;15.81;76.96
10115;BME280;5097;43.260;27.812;2023-05-23T02:51:21;99688.28;;;16.02;76.37
10115;BME280;5097;43.260;27.812;2023-05-23T02:54:05;99672.31;;;15.91;76.46
10115;BME280;5097;43.260;27.812;2023-05-23T02:56:51;99690.69;;;16.27;75.58
10115;BME280;5097;43.260;27.812;2023-05-23T02:59:37;99659.97;;;15.79;76.70
10115;BME280;5097;43.260;27.812;2023-05-23T03:02:21;99688.50;;;15.99;76.14
10115;BME280;5097;43.260;27.812;2023-05-23T03:05:06;99686.97;;;15.97;76.49
10115;BME280;5097;43.260;27.812;2023-05-23T03:07:52;99680.22;;;16.14;75.43
10115;BME280;5097;43.260;27.812;2023-05-23T03:10:36;99674.63;;;16.38;74.74
10115;BME280;5097;43.260;27.812;2023-05-23T03:13:20;99685.97;;;16.30;75.12
10115;BME280;5097;43.260;27.812;2023-05-23T03:16:05;99664.75;;;16.29;75.38
10115;BME280;5097;43.260;27.812;2023-05-23T03:18:49;99678.16;;;16.17;75.38
10115;BME280;5097;43.260;27.812;2023-05-23T03:21:33;99663.72;;;16.20;75.29
10115;BME280;5097;43.260;27.812;2023-05-23T03:24:19;99680.97;;;16.04;76.22
10115;BME280;5097;43.260;27.812;2023-05-23T03:27:04;99677.09;;;16.30;75.32
10115;BME280;5097;43.260;27.812;2023-05-23T03:29:48;99680.38;;;16.33;75.12
10115;BME280;5097;43.260;27.812;2023-05-23T03:32:33;99681.50;;;16.19;75.91
10115;BME280;5097;43.260;27.812;2023-05-23T03:35:17;99686.31;;;16.04;76.24
10115;BME280;5097;43.260;27.812;2023-05-23T03:38:01;99684.84;;;16.12;75.94
10115;BME280;5097;43.260;27.812;2023-05-23T03:40:48;99689.66;;;16.39;75.09
10115;BME280;5097;43.260;27.812;2023-05-23T03:43:32;99674.56;;;16.28;74.64
10115;BME280;5097;43.260;27.812;2023-05-23T03:46:16;99695.81;;;16.39;74.61
10115;BME280;5097;43.260;27.812;2023-05-23T03:49:00;99691.50;;;16.38;74.78
10115;BME280;5097;43.260;27.812;2023-05-23T03:51:44;99698.38;;;16.41;74.64
10115;BME280;5097;43.260;27.812;2023-05-23T03:54:30;99696.63;;;16.30;75.41
10115;BME280;5097;43.260;27.812;2023-05-23T03:57:16;99688.41;;;16.64;73.88
10115;BME280;5097;43.260;27.812;2023-05-23T03:59:59;99698.25;;;16.42;74.44
10115;BME280;5097;43.260;27.812;2023-05-23T04:02:47;99686.72;;;16.42;74.14
10115;BME280;5097;43.260;27.812;2023-05-23T04:05:33;99718.06;;;16.50;74.17
10115;BME280;5097;43.260;27.812;2023-05-23T04:08:18;99704.88;;;16.69;72.94
10115;BME280;5097;43.260;27.812;2023-05-23T04:11:05;99711.63;;;16.73;72.79
10115;BME280;5097;43.260;27.812;2023-05-23T04:13:53;99725.00;;;16.95;72.50
10115;BME280;5097;43.260;27.812;2023-05-23T04:16:37;99708.97;;;16.73;72.90
10115;BME280;5097;43.260;27.812;2023-05-23T04:19:23;99710.72;;;16.84;72.37
10115;BME280;5097;43.260;27.812;2023-05-23T04:22:08;99723.91;;;16.86;72.25
10115;BME280;5097;43.260;27.812;2023-05-23T04:24:52;99716.56;;;16.99;71.65
10115;BME280;5097;43.260;27.812;2023-05-23T04:27:37;99716.38;;;17.12;71.37
10115;BME280;5097;43.260;27.812;2023-05-23T04:30:24;99699.75;;;17.08;70.97
10115;BME280;5097;43.260;27.812;2023-05-23T04:33:08;99734.56;;;17.28;70.50
10115;BME280;5097;43.260;27.812;2023-05-23T04:35:54;99726.25;;;17.31;70.79
10115;BME280;5097;43.260;27.812;2023-05-23T04:38:39;99725.44;;;17.31;70.86
10115;BME280;5097;43.260;27.812;2023-05-23T04:41:23;99734.28;;;17.31;70.41
10115;BME280;5097;43.260;27.812;2023-05-23T04:44:26;99732.88;;;17.37;70.17
10115;BME280;5097;43.260;27.812;2023-05-23T04:47:31;99718.84;;;17.35;69.61
10115;BME280;5097;43.260;27.812;2023-05-23T04:50:23;99746.38;;;17.86;68.39
10115;BME280;5097;43.260;27.812;2023-05-23T04:53:07;99748.94;;;17.47;69.54
10115;BME280;5097;43.260;27.812;2023-05-23T04:55:52;99736.38;;;17.78;67.84
10115;BME280;5097;43.260;27.812;2023-05-23T04:58:37;99746.63;;;17.63;68.89
10115;BME280;5097;43.260;27.812;2023-05-23T05:01:23;99751.28;;;17.81;67.86
10115;BME280;5097;43.260;27.812;2023-05-23T05:04:09;99755.31;;;18.06;66.94
10115;BME280;5097;43.260;27.812;2023-05-23T05:06:54;99745.28;;;17.48;68.53
10115;BME280;5097;43.260;27.812;2023-05-23T05:09:38;99756.63;;;17.81;68.06
10115;BME280;5097;43.260;27.812;2023-05-23T05:12:25;99752.97;;;17.82;67.26
10115;BME280;5097;43.260;27.812;2023-05-23T05:15:10;99756.34;;;17.74;67.66
10115;BME280;5097;43.260;27.812;2023-05-23T05:17:56;99743.97;;;17.73;67.37
10115;BME280;5097;43.260;27.812;2023-05-23T05:20:41;99768.72;;;17.75;68.02
10115;BME280;5097;43.260;27.812;2023-05-23T05:23:26;99766.75;;;17.77;67.61
10115;BME280;5097;43.260;27.812;2023-05-23T05:26:11;99767.13;;;17.63;68.27
10115;BME280;5097;43.260;27.812;2023-05-23T05:28:55;99765.34;;;17.83;67.86
10115;BME280;5097;43.260;27.812;2023-05-23T05:31:41;99765.41;;;17.92;67.60
10115;BME280;5097;43.260;27.812;2023-05-23T05:34:26;99767.31;;;17.81;67.66
10115;BME280;5097;43.260;27.812;2023-05-23T05:37:13;99767.38;;;18.00;66.41
10115;BME280;5097;43.260;27.812;2023-05-23T05:39:58;99773.03;;;18.36;65.91
10115;BME280;5097;43.260;27.812;2023-05-23T05:42:49;99779.22;;;18.76;64.95
10115;BME280;5097;43.260;27.812;2023-05-23T05:45:33;99776.06;;;19.10;63.46
10115;BME280;5097;43.260;27.812;2023-05-23T05:48:18;99767.50;;;18.97;63.45
10115;BME280;5097;43.260;27.812;2023-05-23T05:51:03;99761.19;;;18.68;64.59
10115;BME280;5097;43.260;27.812;2023-05-23T05:53:50;99786.66;;;18.72;64.15
10115;BME280;5097;43.260;27.812;2023-05-23T05:56:34;99777.22;;;19.07;63.55
10115;BME280;5097;43.260;27.812;2023-05-23T05:59:18;99785.63;;;19.13;63.11
10115;BME280;5097;43.260;27.812;2023-05-23T06:02:03;99783.38;;;19.28;62.89
10115;BME280;5097;43.260;27.812;2023-05-23T06:04:47;99786.25;;;18.97;63.57
10115;BME280;5097;43.260;27.812;2023-05-23T06:07:31;99777.59;;;19.60;61.99
10115;BME280;5097;43.260;27.812;2023-05-23T06:10:16;99773.31;;;19.67;61.40
10115;BME280;5097;43.260;27.812;2023-05-23T06:13:01;99770.31;;;18.95;63.13
10115;BME280;5097;43.260;27.812;2023-05-23T06:15:47;99785.78;;;19.21;62.69
10115;BME280;5097;43.260;27.812;2023-05-23T06:18:31;99774.25;;;20.22;60.72
10115;BME280;5097;43.260;27.812;2023-05-23T06:21:15;99774.63;;;19.91;60.33
10115;BME280;5097;43.260;27.812;2023-05-23T06:24:04;99761.81;;;19.85;60.09
10115;BME280;5097;43.260;27.812;2023-05-23T06:26:49;99777.63;;;20.24;59.32
10115;BME280;5097;43.260;27.812;2023-05-23T06:29:33;99649.97;;;19.03;60.17
10115;BME280;5097;43.260;27.812;2023-05-23T06:32:18;99775.53;;;19.82;60.17
10115;BME280;5097;43.260;27.812;2023-05-23T06:35:02;99753.81;;;20.03;59.26
10115;BME280;5097;43.260;27.812;2023-05-23T06:37:48;99771.94;;;19.91;59.74
10115;BME280;5097;43.260;27.812;2023-05-23T06:40:33;99779.91;;;20.01;60.54
10115;BME280;5097;43.260;27.812;2023-05-23T06:43:18;99771.81;;;20.29;59.37
10115;BME280;5097;43.260;27.812;2023-05-23T06:46:06;99784.69;;;20.25;59.95
10115;BME280;5097;43.260;27.812;2023-05-23T06:48:51;99777.03;;;20.12;59.84
10115;BME280;5097;43.260;27.812;2023-05-23T06:51:49;99787.59;;;20.14;59.55
10115;BME280;5097;43.260;27.812;2023-05-23T06:54:34;99779.16;;;20.08;59.58
10115;BME280;5097;43.260;27.812;2023-05-23T06:57:18;99775.16;;;20.31;59.09
10115;BME280;5097;43.260;27.812;2023-05-23T07:00:05;99780.53;;;20.49;57.74
10115;BME280;5097;43.260;27.812;2023-05-23T07:02:55;99766.44;;;20.47;58.10
10115;BME280;5097;43.260;27.812;2023-05-23T07:05:43;99766.19;;;20.76;56.73
10115;BME280;5097;43.260;27.812;2023-05-23T07:08:29;99769.53;;;20.96;57.58
10115;BME280;5097;43.260;27.812;2023-05-23T07:11:15;99776.91;;;20.94;56.45
10115;BME280;5097;43.260;27.812;2023-05-23T07:14:06;99736.13;;;20.28;57.54
10115;BME280;5097;43.260;27.812;2023-05-23T07:16:55;99749.13;;;20.59;57.49
10115;BME280;5097;43.260;27.812;2023-05-23T07:19:39;99768.50;;;20.53;57.61
10115;BME280;5097;43.260;27.812;2023-05-23T07:22:23;99766.34;;;20.74;56.74
10115;BME280;5097;43.260;27.812;2023-05-23T07:25:07;99771.59;;;21.02;57.12
10115;BME280;5097;43.260;27.812;2023-05-23T07:27:52;99769.69;;;21.98;53.96
10115;BME280;5097;43.260;27.812;2023-05-23T07:30:37;99768.59;;;22.67;52.50
10115;BME280;5097;43.260;27.812;2023-05-23T07:33:22;99757.63;;;22.19;53.10
10115;BME280;5097;43.260;27.812;2023-05-23T07:36:11;99769.59;;;21.73;54.39
10115;BME280;5097;43.260;27.812;2023-05-23T07:38:55;99775.91;;;21.99;54.44
10115;BME280;5097;43.260;27.812;2023-05-23T07:41:39;99771.84;;;21.86;53.92
10115;BME280;5097;43.260;27.812;2023-05-23T07:44:23;99771.72;;;21.27;55.90
10115;BME280;5097;43.260;27.812;2023-05-23T07:47:08;99771.97;;;21.42;55.64
10115;BME280;5097;43.260;27.812;2023-05-23T07:49:53;99772.03;;;21.93;55.15
10115;BME280;5097;43.260;27.812;2023-05-23T07:52:38;99775.88;;;21.48;55.18
10115;BME280;5097;43.260;27.812;2023-05-23T07:55:25;99781.91;;;21.50;55.83
10115;BME280;5097;43.260;27.812;2023-05-23T07:58:09;99770.94;;;21.43;55.78
10115;BME280;5097;43.260;27.812;2023-05-23T08:00:53;99778.38;;;21.75;55.13
10115;BME280;5097;43.260;27.812;2023-05-23T08:03:59;99797.31;;;21.74;54.51
10115;BME280;5097;43.260;27.812;2023-05-23T08:06:48;99782.56;;;21.78;55.27
10115;BME280;5097;43.260;27.812;2023-05-23T08:10:00;99775.38;;;21.87;53.59
10115;BME280;5097;43.260;27.812;2023-05-23T08:12:44;99776.78;;;21.30;54.87
10115;BME280;5097;43.260;27.812;2023-05-23T08:15:33;99775.97;;;21.03;55.26
10115;BME280;5097;43.260;27.812;2023-05-23T08:18:24;99766.41;;;21.70;54.13
10115;BME280;5097;43.260;27.812;2023-05-23T08:21:08;99775.25;;;22.05;53.66
10115;BME280;5097;43.260;27.812;2023-05-23T08:23:53;99767.56;;;21.67;53.97
10115;BME280;5097;43.260;27.812;2023-05-23T08:26:37;99743.50;;;21.23;55.30
10115;BME280;5097;43.260;27.812;2023-05-23T08:29:24;99757.50;;;21.69;54.36
10115;BME280;5097;43.260;27.812;2023-05-23T08:32:09;99762.19;;;21.67;54.27
10115;BME280;5097;43.260;27.812;2023-05-23T08:34:54;99752.84;;;21.45;54.79
10115;BME280;5097;43.260;27.812;2023-05-23T08:37:39;99728.50;;;21.47;54.63
10115;BME280;5097;43.260;27.812;2023-05-23T08:40:29;99747.84;;;22.18;53.38
10115;BME280;5097;43.260;27.812;2023-05-23T08:43:26;99724.13;;;21.97;53.55
10115;BME280;5097;43.260;27.812;2023-05-23T08:46:11;99745.13;;;21.93;53.83
10115;BME280;5097;43.260;27.812;2023-05-23T08:48:57;99747.84;;;22.09;53.95
10115;BME280;5097;43.260;27.812;2023-05-23T08:51:44;99749.84;;;21.99;53.60
10115;BME280;5097;43.260;27.812;2023-05-23T08:54:34;99759.34;;;22.61;52.26
10115;BME280;5097;43.260;27.812;2023-05-23T08:57:20;99736.97;;;22.44;52.33
10115;BME280;5097;43.260;27.812;2023-05-23T09:00:11;99757.69;;;22.60;52.71
10115;BME280;5097;43.260;27.812;2023-05-23T09:02:57;99774.06;;;22.07;54.31
10115;BME280;5097;43.260;27.812;2023-05-23T09:05:56;99762.31;;;22.17;54.37
10115;BME280;5097;43.260;27.812;2023-05-23T09:08:41;99769.38;;;21.58;55.76
10115;BME280;5097;43.260;27.812;2023-05-23T09:11:28;99762.84;;;21.61;55.81
10115;BME280;5097;43.260;27.812;2023-05-23T09:14:23;99748.81;;;21.92;55.85
10115;BME280;5097;43.260;27.812;2023-05-23T09:17:15;99746.50;;;22.30;54.19
10115;BME280;5097;43.260;27.812;2023-05-23T09:20:01;99754.31;;;22.50;53.75
10115;BME280;5097;43.260;27.812;2023-05-23T09:22:56;99722.50;;;22.62;53.25
10115;BME280;5097;43.260;27.812;2023-05-23T09:25:45;99732.06;;;22.31;53.60
10115;BME280;5097;43.260;27.812;2023-05-23T09:28:32;99754.56;;;22.14;55.28
10115;BME280;5097;43.260;27.812;2023-05-23T09:31:17;99751.91;;;22.80;54.04
10115;BME280;5097;43.260;27.812;2023-05-23T09:34:02;99759.88;;;22.40;53.48
10115;BME280;5097;43.260;27.812;2023-05-23T09:36:47;99753.97;;;22.45;54.65
10115;BME280;5097;43.260;27.812;2023-05-23T09:39:36;99740.31;;;22.21;55.59
10115;BME280;5097;43.260;27.812;2023-05-23T09:42:20;99744.38;;;22.42;54.19
10115;BME280;5097;43.260;27.812;2023-05-23T09:45:06;99741.44;;;23.09;53.51
10115;BME280;5097;43.260;27.812;2023-05-23T09:47:51;99737.19;;;24.03;50.75
10115;BME280;5097;43.260;27.812;2023-05-23T09:50:35;99737.06;;;23.08;52.58
10115;BME280;5097;43.260;27.812;2023-05-23T09:53:20;99746.50;;;22.88;52.93
10115;BME280;5097;43.260;27.812;2023-05-23T09:56:04;99749.00;;;23.22;52.27
10115;BME280;5097;43.260;27.812;2023-05-23T09:58:50;99737.75;;;22.94;51.89
10115;BME280;5097;43.260;27.812;2023-05-23T10:01:36;99735.47;;;22.50;53.56
10115;BME280;5097;43.260;27.812;2023-05-23T10:04:24;99744.53;;;22.73;52.74
10115;BME280;5097;43.260;27.812;2023-05-23T10:07:12;99739.41;;;23.12;52.52
10115;BME280;5097;43.260;27.812;2023-05-23T10:10:02;99741.09;;;23.13;53.32
10115;BME280;5097;43.260;27.812;2023-05-23T10:12:49;99741.13;;;22.88;52.86
10115;BME280;5097;43.260;27.812;2023-05-23T10:15:37;99735.06;;;22.03;54.69
10115;BME280;5097;43.260;27.812;2023-05-23T10:18:25;99751.06;;;22.05;56.67
10115;BME280;5097;43.260;27.812;2023-05-23T10:21:17;99746.31;;;21.90;58.68
10115;BME280;5097;43.260;27.812;2023-05-23T10:24:02;99757.13;;;21.64;68.32
10115;BME280;5097;43.260;27.812;2023-05-23T10:26:47;99755.94;;;20.98;67.63
10115;BME280;5097;43.260;27.812;2023-05-23T10:29:31;99743.09;;;20.83;69.13
10115;BME280;5097;43.260;27.812;2023-05-23T10:32:17;99762.38;;;20.60;72.96
10115;BME280;5097;43.260;27.812;2023-05-23T10:35:08;99772.13;;;20.25;77.16
10115;BME280;5097;43.260;27.812;2023-05-23T10:38:00;99758.84;;;19.22;83.44
10115;BME280;5097;43.260;27.812;2023-05-23T10:40:49;99771.88;;;19.07;85.69
10115;BME280;5097;43.260;27.812;2023-05-23T10:43:43;99788.72;;;19.18;87.18
10115;BME280;5097;43.260;27.812;2023-05-23T10:46:49;99805.84;;;18.97;87.56
10115;BME280;5097;43.260;27.812;2023-05-23T10:49:41;99811.88;;;18.21;95.00
10115;BME280;5097;43.260;27.812;2023-05-23T10:52:26;99820.63;;;17.82;99.75
10115;BME280;5097;43.260;27.812;2023-05-23T10:55:15;99814.50;;;18.01;99.07
10115;BME280;5097;43.260;27.812;2023-05-23T10:58:09;99820.03;;;18.29;98.07
10115;BME280;5097;43.260;27.812;2023-05-23T11:00:56;99794.31;;;18.67;94.72
10115;BME280;5097;43.260;27.812;2023-05-23T11:03:49;99825.19;;;19.66;92.16
10115;BME280;5097;43.260;27.812;2023-05-23T11:06:38;99807.53;;;20.47;90.70
10115;BME280;5097;43.260;27.812;2023-05-23T11:09:25;99800.91;;;20.96;83.97
10115;BME280;5097;43.260;27.812;2023-05-23T11:12:10;99809.84;;;21.04;84.27
10115;BME280;5097;43.260;27.812;2023-05-23T11:14:54;99812.72;;;21.29;77.77
10115;BME280;5097;43.260;27.812;2023-05-23T11:17:49;99804.59;;;21.21;76.44
10115;BME280;5097;43.260;27.812;2023-05-23T11:20:36;99792.81;;;20.87;76.31
10115;BME280;5097;43.260;27.812;2023-05-23T11:23:21;99793.84;;;21.21;79.36
10115;BME280;5097;43.260;27.812;2023-05-23T11:26:28;99811.53;;;21.05;72.50
10115;BME280;5097;43.260;27.812;2023-05-23T11:29:15;99805.81;;;21.26;75.34
10115;BME280;5097;43.260;27.812;2023-05-23T11:31:59;99811.44;;;20.89;72.78
10115;BME280;5097;43.260;27.812;2023-05-23T11:34:43;99805.28;;;22.43;73.69
10115;BME280;5097;43.260;27.812;2023-05-23T11:37:28;99803.97;;;21.96;68.72
10115;BME280;5097;43.260;27.812;2023-05-23T11:40:26;99803.19;;;21.69;66.56
10115;BME280;5097;43.260;27.812;2023-05-23T11:43:12;99808.91;;;22.25;69.58
10115;BME280;5097;43.260;27.812;2023-05-23T11:46:07;99810.66;;;21.84;67.11
10115;BME280;5097;43.260;27.812;2023-05-23T11:48:51;99808.72;;;22.10;67.39
10115;BME280;5097;43.260;27.812;2023-05-23T11:51:36;99805.75;;;23.29;65.70
10115;BME280;5097;43.260;27.812;2023-05-23T11:54:22;99794.97;;;23.29;62.31
10115;BME280;5097;43.260;27.812;2023-05-23T11:57:06;99804.81;;;24.01;62.49
10115;BME280;5097;43.260;27.812;2023-05-23T11:59:50;99794.66;;;24.12;65.91
10115;BME280;5097;43.260;27.812;2023-05-23T12:02:39;99790.31;;;24.02;69.02
10115;BME280;5097;43.260;27.812;2023-05-23T12:05:23;99796.03;;;24.62;65.54
10115;BME280;5097;43.260;27.812;2023-05-23T12:08:10;99792.94;;;23.31;69.93
10115;BME280;5097;43.260;27.812;2023-05-23T12:10:57;99775.78;;;23.07;70.26
10115;BME280;5097;43.260;27.812;2023-05-23T12:13:42;99782.66;;;23.74;69.36
10115;BME280;5097;43.260;27.812;2023-05-23T12:16:27;99779.53;;;24.02;70.48
10115;BME280;5097;43.260;27.812;2023-05-23T12:19:13;99764.28;;;24.09;70.40
10115;BME280;5097;43.260;27.812;2023-05-23T12:22:04;99739.84;;;23.80;70.12
10115;BME280;5097;43.260;27.812;2023-05-23T12:24:49;99755.19;;;24.10;69.29
10115;BME280;5097;43.260;27.812;2023-05-23T12:27:35;99769.88;;;24.54;67.08
10115;BME280;5097;43.260;27.812;2023-05-23T12:30:20;99767.00;;;24.94;67.66
10115;BME280;5097;43.260;27.812;2023-05-23T12:33:07;99763.25;;;24.65;68.15
10115;BME280;5097;43.260;27.812;2023-05-23T12:35:52;99783.69;;;24.59;67.01
10115;BME280;5097;43.260;27.812;2023-05-23T12:38:36;99767.22;;;23.12;68.33
10115;BME280;5097;43.260;27.812;2023-05-23T12:41:22;99775.44;;;22.20;73.67
10115;BME280;5097;43.260;27.812;2023-05-23T12:44:06;99758.16;;;22.39;72.36
10115;BME280;5097;43.260;27.812;2023-05-23T12:46:50;99772.03;;;21.93;73.59
10115;BME280;5097;43.260;27.812;2023-05-23T12:49:34;99770.16;;;21.93;74.81
10115;BME280;5097;43.260;27.812;2023-05-23T12:52:20;99765.25;;;21.81;76.58
10115;BME280;5097;43.260;27.812;2023-05-23T12:55:04;99770.75;;;21.63;75.91
10115;BME280;5097;43.260;27.812;2023-05-23T12:57:48;99765.13;;;21.82;76.42
10115;BME280;5097;43.260;27.812;2023-05-23T13:00:32;99769.22;;;22.27;74.46
10115;BME280;5097;43.260;27.812;2023-05-23T13:03:16;99765.75;;;22.68;74.11
10115;BME280;5097;43.260;27.812;2023-05-23T13:06:01;99771.97;;;22.69;72.57
10115;BME280;5097;43.260;27.812;2023-05-23T13:08:47;99754.31;;;22.41;73.65
10115;BME280;5097;43.260;27.812;2023-05-23T13:11:32;99768.09;;;22.63;71.72
10115;BME280;5097;43.260;27.812;2023-05-23T13:14:16;99756.28;;;22.15;73.49
10115;BME280;5097;43.260;27.812;2023-05-23T13:17:00;99766.03;;;22.16;72.61
10115;BME280;5097;43.260;27.812;2023-05-23T13:19:44;99760.88;;;22.72;74.52
10115;BME280;5097;43.260;27.812;2023-05-23T13:22:30;99759.16;;;22.54;71.03
10115;BME280;5097;43.260;27.812;2023-05-23T13:25:16;99745.81;;;23.02;72.35
10115;BME280;5097;43.260;27.812;2023-05-23T13:28:01;99752.28;;;22.76;71.78
10115;BME280;5097;43.260;27.812;2023-05-23T13:30:45;99747.59;;;23.43;70.99
10115;BME280;5097;43.260;27.812;2023-05-23T13:33:30;99756.13;;;23.55;67.35
10115;BME280;5097;43.260;27.812;2023-05-23T13:36:14;99763.22;;;23.48;68.81
10115;BME280;5097;43.260;27.812;2023-05-23T13:38:58;99763.28;;;24.10;68.91
10115;BME280;5097;43.260;27.812;2023-05-23T13:41:44;99761.44;;;24.96;63.73
10115;BME280;5097;43.260;27.812;2023-05-23T13:44:28;99760.84;;;24.70;64.36
10115;BME280;5097;43.260;27.812;2023-05-23T13:47:13;99762.56;;;25.31;60.92
10115;BME280;5097;43.260;27.812;2023-05-23T13:49:57;99759.38;;;24.59;63.41
10115;BME280;5097;43.260;27.812;2023-05-23T13:52:41;99759.81;;;24.02;65.48
10115;BME280;5097;43.260;27.812;2023-05-23T13:55:28;99751.69;;;24.71;62.43
10115;BME280;5097;43.260;27.812;2023-05-23T13:58:14;99743.94;;;24.30;61.60
10115;BME280;5097;43.260;27.812;2023-05-23T14:00:58;99765.72;;;24.20;61.32
10115;BME280;5097;43.260;27.812;2023-05-23T14:03:42;99772.41;;;23.70;61.87
10115;BME280;5097;43.260;27.812;2023-05-23T14:06:26;99750.22;;;23.99;62.09
10115;BME280;5097;43.260;27.812;2023-05-23T14:09:10;99780.03;;;22.69;66.27
10115;BME280;5097;43.260;27.812;2023-05-23T14:11:54;99781.03;;;22.51;66.79
10115;BME280;5097;43.260;27.812;2023-05-23T14:14:40;99790.50;;;20.74;72.08
10115;BME280;5097;43.260;27.812;2023-05-23T14:17:24;99776.66;;;20.43;74.72
10115;BME280;5097;43.260;27.812;2023-05-23T14:20:09;99789.53;;;21.28;71.86
10115;BME280;5097;43.260;27.812;2023-05-23T14:22:53;99787.81;;;21.96;69.15
10115;BME280;5097;43.260;27.812;2023-05-23T14:25:38;99766.00;;;23.31;63.41
10115;BME280;5097;43.260;27.812;2023-05-23T14:28:22;99783.06;;;23.55;61.96
10115;BME280;5097;43.260;27.812;2023-05-23T14:31:08;99774.88;;;24.42;60.82
10115;BME280;5097;43.260;27.812;2023-05-23T14:33:53;99750.03;;;24.70;59.56
10115;BME280;5097;43.260;27.812;2023-05-23T14:36:37;99777.47;;;25.87;56.72
10115;BME280;5097;43.260;27.812;2023-05-23T14:39:21;99776.50;;;26.53;53.73
10115;BME280;5097;43.260;27.812;2023-05-23T14:42:07;99767.34;;;26.32;52.62